TJG weather

Warukin Airport
Tanta-Tabalong-Borneo Island, Kalimantan Selatan, Indonesia

Public forecast

Using degrees Celsius for public forecast. Weather courtesy of forecast.io.

Closest aviation weather report (METAR) to Warukin Airport

Report is more than 2 hours old.

Closest report is Syamsudin Noor Airport, 83.9 nm (155.4 km) SSW. Retrieved 2019/12/11 21:30 UTC (3 hours ago):

WAOO 112130Z 05004KT 4000 BR NSC 25/25 Q1008

Closest aviation forecast (TAF) to Warukin Airport

Forecast is more than 12 hours old.

Closest forecast is Gusti Syamsir Alam Airport, 78.1 nm (144.7 km) SE. Retrieved 2017/03/16 00:00 UTC (3 years ago):

TAF WAOK 152300Z 1600/1612 00000KT 6000 SCT015 BECMG 1601/1603 34010KT 9999 TEMPO 1608/1612 5000 TSRA FEW014CB